IK1YHX Porte IT current weather conditions

sailwx.info

Wind from 248 at 4 knots gusting 4

Air temperature 1.7° C
Dewpoint -0.9° C

Last reported at 2019-Dec-06 19:08 UTC.
Time now 2019-Dec-06 20:12 UTC

Location: N 44°53' E 007°16'.
View on Google Maps.

See reports from other nearby stations

  
Tides and Currents Weather Stations Pressure Air Temp Water Temp Dewpoint Dewpoint Depression Visibility Wind Speed Wind Dir Waves Ship Positions
date/time (UTC)wind fromknots sea level pressurealtimeterstation pressurevisibilityair tempwater tempwave heightnotes
2019-Dec-06 19:08 248 4 gusting 4 1.7
2019-Dec-06 19:03 248 3 gusting 6 1.7
2019-Dec-06 18:58 248 6 gusting 6 1.7
2019-Dec-06 18:53 270 5 gusting 5 1.7
2019-Dec-06 18:48 270 5 gusting 5 1.7
2019-Dec-06 18:43 248 4 gusting 4 1.7
2019-Dec-06 18:38 225 5 gusting 5 1.7
2019-Dec-06 18:33 248 5 gusting 5 1.7
2019-Dec-06 18:28 225 3 gusting 4 1.7
2019-Dec-06 18:23 248 3 gusting 7 1.7
2019-Dec-06 18:18 248 7 gusting 7 1.7
2019-Dec-06 18:13 293 3 gusting 3 1.7
2019-Dec-06 18:08 270 2 gusting 3 1.7
2019-Dec-06 18:03 270 2 gusting 3 2.2
2019-Dec-06 17:58 248 3 gusting 3 2.2
2019-Dec-06 17:53 248 3 gusting 4 2.2
2019-Dec-06 17:48 270 4 gusting 4 2.2
2019-Dec-06 17:43 248 3 gusting 3 2.2
2019-Dec-06 17:38 270 3 gusting 3 2.2
2019-Dec-06 17:33 270 3 gusting 3 2.2
2019-Dec-06 17:28 270 3 gusting 3 2.2
2019-Dec-06 17:23 248 2 gusting 3 2.2
2019-Dec-06 17:18 248 3 gusting 5 2.2
2019-Dec-06 17:13 248 2 gusting 2 2.8
2019-Dec-06 17:08 248 1 gusting 1 2.8
2019-Dec-06 17:03 248 0 gusting 0 2.8
2019-Dec-06 16:58 270 2.8
2019-Dec-06 16:53 270 2.8
2019-Dec-06 16:48 225 1 gusting 1 2.8
2019-Dec-06 16:43 248 2.8
2019-Dec-06 16:38 270 2.8
2019-Dec-06 16:33 270 2.8
2019-Dec-06 16:28 293 0 gusting 1 3.3
2019-Dec-06 16:23 270 3.3
2019-Dec-06 16:18 270 3.3
2019-Dec-06 16:13 293 3.3
2019-Dec-06 16:08 293 3.3
2019-Dec-06 16:03 270 3.3
2019-Dec-06 15:58 270 3.3
2019-Dec-06 15:53 270 3.9
2019-Dec-06 15:48 270 3.9
2019-Dec-06 15:43 270 3.9
2019-Dec-06 15:38 023 3.9
2019-Dec-06 15:33 045 4.4
2019-Dec-06 15:28 023 4.4
2019-Dec-06 15:23 023 4.4
2019-Dec-06 15:18 023 4.4
2019-Dec-06 15:13 023 4.4
2019-Dec-06 15:08 023 1 gusting 1 5.0
2019-Dec-06 15:03 023 1 gusting 1 5.0
2019-Dec-06 14:58 5.0
2019-Dec-06 14:53 5.0
2019-Dec-06 14:48 5.0
2019-Dec-06 14:43 023 2 gusting 2 5.0
2019-Dec-06 14:38 023 2 gusting 2 5.6
2019-Dec-06 14:33 045 0 gusting 1 5.6
2019-Dec-06 14:28 023 1 gusting 1 5.6
2019-Dec-06 14:23 023 6.1
2019-Dec-06 14:18 045 1 gusting 1 6.1
2019-Dec-06 14:13 045 1 gusting 1 6.1
2019-Dec-06 14:08 023 1 gusting 1 6.7
2019-Dec-06 14:03 023 1 gusting 1 6.7
2019-Dec-06 13:58 045 1 gusting 3 7.2
2019-Dec-06 13:53 023 0 gusting 3 7.8
2019-Dec-06 13:48 023 7.8
2019-Dec-06 13:43 045 1 gusting 3 7.8
2019-Dec-06 13:38 045 0 gusting 2 7.8
2019-Dec-06 13:33 158 0 gusting 1 7.8
2019-Dec-06 13:28 023 1 gusting 1 7.8
2019-Dec-06 13:23 068 0 gusting 3 7.8
2019-Dec-06 13:18 045 3 gusting 4 7.8
2019-Dec-06 13:13 045 2 gusting 4 7.8
2019-Dec-06 13:08 023 4 gusting 4 7.8
2019-Dec-06 13:03 023 0 gusting 2 8.3
2019-Dec-06 12:58 045 2 gusting 2 8.3
2019-Dec-06 12:53 045 1 gusting 2 8.3
2019-Dec-06 12:48 023 2 gusting 3 8.3
2019-Dec-06 12:43 8.3
2019-Dec-06 12:38 045 2 gusting 2 8.3
2019-Dec-06 12:33 045 1 gusting 3 8.3
2019-Dec-06 12:28 023 3 gusting 5 8.3
2019-Dec-06 12:23 045 1 gusting 3 8.3
2019-Dec-06 12:18 023 8.3
2019-Dec-06 12:13 023 1 gusting 1 8.3
2019-Dec-06 12:08 068 8.3
2019-Dec-06 12:03 045 1 gusting 1 8.3
2019-Dec-06 11:58 045 1 gusting 2 8.3
2019-Dec-06 11:53 045 2 gusting 2 8.3
2019-Dec-06 11:48 090 1 gusting 1 8.3
2019-Dec-06 11:43 7.8
2019-Dec-06 11:38 045 3 gusting 3 7.8
2019-Dec-06 11:33 068 7.8
2019-Dec-06 11:28 068 7.8
2019-Dec-06 11:23 068 1 gusting 3 7.8
2019-Dec-06 11:18 023 3 gusting 3 7.8
2019-Dec-06 11:13 090 1 gusting 1 7.8
2019-Dec-06 11:08 7.8
2019-Dec-06 11:03 023 3 gusting 3 7.8
2019-Dec-06 10:58 045 2 gusting 2 7.8
2019-Dec-06 10:53 045 2 gusting 2 7.8
2019-Dec-06 10:48 023 2 gusting 2 7.8
2019-Dec-06 10:43 023 2 gusting 2 7.8
2019-Dec-06 10:38 023 1 gusting 1 7.8
2019-Dec-06 10:33 045 1 gusting 1 7.8
2019-Dec-06 10:28 023 7.8
2019-Dec-06 10:23 158 7.2
2019-Dec-06 10:18 023 7.2
2019-Dec-06 10:13 023 0 gusting 1 7.2
2019-Dec-06 10:08 045 1 gusting 1 7.2
2019-Dec-06 10:03 045 1 gusting 1 6.7
2019-Dec-06 09:58 158 1 gusting 1 6.7
2019-Dec-06 09:53 180 1 gusting 1 6.7
2019-Dec-06 09:48 023 1 gusting 1 6.1
2019-Dec-06 09:43 180 0 gusting 0 6.1
2019-Dec-06 09:38 090 5.6
2019-Dec-06 09:33 180 50 gusting 50 5.6
2019-Dec-06 09:28 158 5.0
2019-Dec-06 09:23 158 5.0
2019-Dec-06 09:18 158 5.0
2019-Dec-06 09:13 158 3.9
2019-Dec-06 09:08 135 3.9
2019-Dec-06 09:03 158 0 gusting 0 3.9
2019-Dec-06 08:58 180 1 gusting 1 3.3
2019-Dec-06 08:53 180 0 gusting 0 3.3
2019-Dec-06 08:48 203 0 gusting 1 3.3
2019-Dec-06 08:43 180 1 gusting 2 2.8
2019-Dec-06 08:38 180 2.8
2019-Dec-06 08:33 225 5 gusting 6 2.2
2019-Dec-06 08:28 225 4 gusting 4 1.7
2019-Dec-06 08:23 225 4 gusting 4 1.7
2019-Dec-06 08:18 225 2 gusting 4 1.7
2019-Dec-06 08:13 225 4 gusting 4 1.1
2019-Dec-06 08:08 225 3 gusting 3 1.1
2019-Dec-06 08:03 270 1 gusting 5 0.6
2019-Dec-06 07:58 248 5 gusting 6 0.6
2019-Dec-06 07:53 225 6 gusting 7 0.6
2019-Dec-06 07:48 270 7 gusting 7 0.6
2019-Dec-06 07:43 225 5 gusting 5 0.6
2019-Dec-06 07:38 248 1 gusting 2 0.6
2019-Dec-06 07:33 270 1 gusting 3 0.6
2019-Dec-06 07:28 293 0 gusting 0 0.6
2019-Dec-06 07:23 293 0.6
2019-Dec-06 07:18 203 6 gusting 6 0.6
2019-Dec-06 07:13 248 5 gusting 6 0.6
2019-Dec-06 07:08 225 3 gusting 3 0.6
2019-Dec-06 07:03 270 2 gusting 3 0.6
2019-Dec-06 06:58 248 3 gusting 3 0.6
2019-Dec-06 06:53 248 0 gusting 1 0.6
2019-Dec-06 06:48 248 1 gusting 3 -0.0
2019-Dec-06 06:43 270 3 gusting 5 -0.0
2019-Dec-06 06:38 270 2 gusting 7 -0.0
2019-Dec-06 06:33 248 5 gusting 5 -0.0
2019-Dec-06 06:28 248 4 gusting 4 -0.0
2019-Dec-06 06:23 225 3 gusting 3 -0.0
2019-Dec-06 06:18 225 2 gusting 3 -0.0
2019-Dec-06 06:13 270 2 gusting 4 -0.0
2019-Dec-06 06:08 225 1 gusting 4 -0.0
2019-Dec-06 06:03 270 3 gusting 3 -0.0
2019-Dec-06 05:58 248 4 gusting 4 -0.0
2019-Dec-06 05:53 270 3 gusting 4 -0.0
2019-Dec-06 05:48 270 1 gusting 3 -0.0
2019-Dec-06 05:43 248 3 gusting 8 -0.0
2019-Dec-06 05:38 225 6 gusting 6 -0.0
2019-Dec-06 05:33 225 6 gusting 6 -0.0
2019-Dec-06 05:28 248 3 gusting 6 -0.0
2019-Dec-06 05:23 225 6 gusting 6 -0.0
2019-Dec-06 05:18 270 3 gusting 4 -0.0
2019-Dec-06 05:13 248 5 gusting 7 -0.0
2019-Dec-06 05:08 248 2 gusting 4 -0.0
2019-Dec-06 05:03 203 4 gusting 4 -0.0
2019-Dec-06 04:58 270 3 gusting 3 0.6
2019-Dec-06 04:53 225 4 gusting 4 0.6
2019-Dec-06 04:48 203 4 gusting 5 0.6
2019-Dec-06 04:43 225 5 gusting 5 0.6
2019-Dec-06 04:38 248 3 gusting 4 0.6
2019-Dec-06 04:33 248 4 gusting 4 0.6
2019-Dec-06 04:28 270 0 gusting 1 -0.0
2019-Dec-06 04:23 270 1 gusting 1 -0.0
2019-Dec-06 04:18 270 0 gusting 0 -0.0
2019-Dec-06 04:13 270 0.6
2019-Dec-06 04:08 270 0.6
2019-Dec-06 04:03 270 0.6
2019-Dec-06 03:58 270 0.6
2019-Dec-06 03:53 225 2 gusting 2 0.6
2019-Dec-06 03:48 225 2 gusting 2 1.1
2019-Dec-06 03:43 248 1.1
2019-Dec-06 03:38 248 0 gusting 0 1.1
2019-Dec-06 03:33 248 0 gusting 1 0.6
2019-Dec-06 03:28 248 1 gusting 2 0.6
2019-Dec-06 03:23 270 2 gusting 3 0.6
2019-Dec-06 03:18 248 3 gusting 5 0.6
2019-Dec-06 03:13 225 1 gusting 1 0.6
2019-Dec-06 03:08 270 4 gusting 4 0.6
2019-Dec-06 03:03 270 4 gusting 4 0.6
2019-Dec-06 02:58 293 3 gusting 3 0.6
2019-Dec-06 02:53 248 3 gusting 9 0.6
2019-Dec-06 02:48 248 9 gusting 9 0.6
2019-Dec-06 02:43 270 0 gusting 4 0.6
2019-Dec-06 02:38 248 4 gusting 4 0.6
2019-Dec-06 02:33 270 4 gusting 7 0.6
2019-Dec-06 02:28 248 7 gusting 7 0.6
2019-Dec-06 02:23 248 3 gusting 3 0.6
2019-Dec-06 02:18 248 3 gusting 3 1.1
2019-Dec-06 02:13 270 4 gusting 4 1.1
2019-Dec-06 02:08 225 1 gusting 2 1.1
2019-Dec-06 02:03 248 2 gusting 5 1.1
2019-Dec-06 01:58 270 1 gusting 5 1.1
2019-Dec-06 01:53 248 2 gusting 3 1.1
2019-Dec-06 01:48 225 3 gusting 3 1.1
2019-Dec-06 01:43 270 2 gusting 2 1.1
2019-Dec-06 01:38 293 1 gusting 3 1.1
2019-Dec-06 01:33 248 2 gusting 2 1.1
2019-Dec-06 01:28 248 2 gusting 4 0.6
2019-Dec-06 01:23 225 4 gusting 4 0.6
2019-Dec-06 01:18 225 3 gusting 3 0.6
2019-Dec-06 01:13 270 1 gusting 2 0.6
2019-Dec-06 01:08 270 2 gusting 3 0.6
2019-Dec-06 01:03 293 3 gusting 3 0.6
2019-Dec-06 00:58 248 3 gusting 6 0.6
2019-Dec-06 00:53 248 6 gusting 6 0.6
2019-Dec-06 00:48 270 1 gusting 7 0.6
2019-Dec-06 00:43 270 7 gusting 7 0.6
2019-Dec-06 00:38 270 4 gusting 5 0.6
2019-Dec-06 00:33 270 5 gusting 5 0.6
2019-Dec-06 00:28 248 3 gusting 6 0.6
2019-Dec-06 00:23 225 6 gusting 6 0.6
2019-Dec-06 00:18 270 3 gusting 7 0.6
2019-Dec-06 00:13 270 4 gusting 6 0.6
2019-Dec-06 00:08 248 3 gusting 3 0.6
2019-Dec-06 00:03 225 3 gusting 3 0.6
2019-Dec-05 23:58 248 0.6
2019-Dec-05 23:53 270 1 gusting 1 1.1
2019-Dec-05 23:48 248 0 gusting 0 1.1
2019-Dec-05 23:43 270 1.1
2019-Dec-05 23:38 270 1.1
2019-Dec-05 23:33 270 1.1
2019-Dec-05 23:28 270 1.7
2019-Dec-05 23:23 225 1.7
2019-Dec-05 23:18 270 1.7
2019-Dec-05 23:13 248 1.7
2019-Dec-05 23:08 270 0 gusting 1 1.7
2019-Dec-05 23:03 248 1 gusting 3 1.7
2019-Dec-05 22:58 248 1 gusting 1 1.7
2019-Dec-05 22:53 248 1 gusting 2 1.7
2019-Dec-05 22:48 270 2 gusting 2 1.1
2019-Dec-05 22:43 248 1 gusting 1 1.1
2019-Dec-05 22:38 270 1 gusting 3 1.1
2019-Dec-05 22:33 225 3 gusting 4 1.1
2019-Dec-05 22:28 1.1
2019-Dec-05 22:23 270 3 gusting 5 1.1
2019-Dec-05 22:18 203 5 gusting 5 1.1
2019-Dec-05 22:13 270 2 gusting 2 1.1
2019-Dec-05 22:08 270 1 gusting 2 1.1
2019-Dec-05 22:03 248 2 gusting 3 1.1
2019-Dec-05 21:58 248 3 gusting 3 1.1
2019-Dec-05 21:53 293 3 gusting 3 1.1
2019-Dec-05 21:48 270 1 gusting 3 1.1
2019-Dec-05 21:43 248 1 gusting 4 1.1
2019-Dec-05 21:38 248 4 gusting 4 1.1
2019-Dec-05 21:33 270 4 gusting 8 1.1
2019-Dec-05 21:28 270 4 gusting 4 1.1
2019-Dec-05 21:23 270 3 gusting 5 1.7
2019-Dec-05 21:18 248 5 gusting 5 1.7
2019-Dec-05 21:13 248 3 gusting 5 1.7
2019-Dec-05 21:08 225 5 gusting 5 1.7
2019-Dec-05 21:03 270 2 gusting 4 1.7
2019-Dec-05 20:58 248 3 gusting 3 1.7
2019-Dec-05 20:53 225 1 gusting 3 1.7
2019-Dec-05 20:48 248 2 gusting 2 1.7
2019-Dec-05 20:43 248 1 gusting 4 1.7
2019-Dec-05 20:38 248 3 gusting 3 1.7
2019-Dec-05 20:33 225 1 gusting 1 1.7
2019-Dec-05 20:28 225 1 gusting 4 1.7
2019-Dec-05 20:23 248 4 gusting 4 1.7
2019-Dec-05 20:18 248 1 gusting 4 1.7
2019-Dec-05 20:13 225 1 gusting 1 1.7
2019-Dec-05 20:08 293 1 gusting 3 1.7
2019-Dec-05 20:03 248 2 gusting 2 1.7
2019-Dec-05 19:58 270 3 gusting 3 1.7
2019-Dec-05 19:53 270 3 gusting 5 1.7
2019-Dec-05 19:48 248 3 gusting 3 1.7
2019-Dec-05 19:43 270 5 gusting 5 1.7
2019-Dec-05 19:38 225 4 gusting 4 2.2
2019-Dec-05 19:33 293 3 gusting 3 2.2
2019-Dec-05 19:28 248 2 gusting 2 2.2
2019-Dec-05 19:23 270 1 gusting 3 2.2
2019-Dec-05 19:18 248 3 gusting 3 2.2
2019-Dec-05 19:13 270 1 gusting 3 2.2
2019-Dec-05 19:08 203 3 gusting 3 2.2
2019-Dec-05 19:03 248 2 gusting 2 2.2
2019-Dec-05 18:58 248 2 gusting 3 2.2
2019-Dec-05 18:53 248 3 gusting 3 2.2
2019-Dec-05 18:48 225 4 gusting 4 2.8
2019-Dec-05 18:43 248 2 gusting 2 2.8
2019-Dec-05 18:38 248 1 gusting 5 2.8
2019-Dec-05 18:33 248 5 gusting 5 2.8
2019-Dec-05 18:28 248 2 gusting 2 2.8
2019-Dec-05 18:23 248 2 gusting 6 2.8
2019-Dec-05 18:18 248 2 gusting 2 2.8
2019-Dec-05 18:13 248 3 gusting 3 2.8
2019-Dec-05 18:08 293 0 gusting 2 2.8
2019-Dec-05 18:03 248 2 gusting 2 2.8
2019-Dec-05 17:58 293 4 gusting 4 2.8
2019-Dec-05 17:53 248 1 gusting 2 2.8
2019-Dec-05 17:48 270 1 gusting 3 2.8
2019-Dec-05 17:43 248 3 gusting 3 2.8
2019-Dec-05 17:38 225 1 gusting 2 2.8
2019-Dec-05 17:33 248 2 gusting 3 2.8
2019-Dec-05 17:28 225 3 gusting 3 2.8
2019-Dec-05 17:23 248 1 gusting 3 2.8
2019-Dec-05 17:18 225 3 gusting 3 2.8
2019-Dec-05 17:13 225 2 gusting 2 2.8
2019-Dec-05 17:08 248 2 gusting 2 2.8
2019-Dec-05 17:03 270 1 gusting 3 2.8
2019-Dec-05 16:58 248 3 gusting 3 2.8
2019-Dec-05 16:53 248 2 gusting 5 2.8
2019-Dec-05 16:48 248 1 gusting 1 2.8
2019-Dec-05 16:43 270 1 gusting 2 3.3
2019-Dec-05 16:38 270 2 gusting 2 3.3
2019-Dec-05 16:33 248 2 gusting 2 3.3
2019-Dec-05 16:28 270 3.3
2019-Dec-05 16:23 270 0 gusting 0 3.3
2019-Dec-05 16:18 270 3.3
2019-Dec-05 16:13 270 3.3
2019-Dec-05 16:08 293 3.3
2019-Dec-05 16:03 270 3.3
2019-Dec-05 15:58 023 3.9
2019-Dec-05 15:53 023 3.9
2019-Dec-05 15:48 023 3.9
2019-Dec-05 15:43 3.9
2019-Dec-05 15:38 3.9
2019-Dec-05 15:33 023 0 gusting 0 4.4
2019-Dec-05 15:28 023 0 gusting 0 4.4
2019-Dec-05 15:23 023 4.4
2019-Dec-05 15:18 023 4.4
2019-Dec-05 15:13 023 0 gusting 0 4.4
2019-Dec-05 15:08 5.0
2019-Dec-05 15:03 5.0
2019-Dec-05 14:58 023 0 gusting 0 5.0
2019-Dec-05 14:53 023 5.0
2019-Dec-05 14:48 023 0 gusting 49 5.6
2019-Dec-05 14:43 023 5.6
2019-Dec-05 14:38 5.6
2019-Dec-05 14:33 090 0 gusting 0 5.6
2019-Dec-05 14:28 045 5.6
2019-Dec-05 14:23 023 5.6
2019-Dec-05 14:18 023 2 gusting 2 6.1
2019-Dec-05 14:13 045 1 gusting 1 6.1
2019-Dec-05 14:08 023 6.1
2019-Dec-05 14:03 023 6.1
2019-Dec-05 13:58 023 0 gusting 0 6.7
2019-Dec-05 13:53 045 0 gusting 0 6.7
2019-Dec-05 13:48 068 6.7
2019-Dec-05 13:43 023 1 gusting 5 6.7
2019-Dec-05 13:38 6.7
2019-Dec-05 13:33 6.7
2019-Dec-05 13:28 045 1 gusting 2 6.7
2019-Dec-05 13:23 023 2 gusting 3 6.7
2019-Dec-05 13:18 045 1 gusting 1 6.7
2019-Dec-05 13:13 090 1 gusting 2 7.2
2019-Dec-05 13:08 045 1 gusting 1 7.2
2019-Dec-05 13:03 068 0 gusting 1 7.2
2019-Dec-05 12:58 068 0 gusting 0 7.2
2019-Dec-05 12:53 7.2
2019-Dec-05 12:48 023 7 gusting 7 7.8
2019-Dec-05 12:43 045 1 gusting 5 7.8
2019-Dec-05 12:38 045 0 gusting 0 8.3
2019-Dec-05 12:33 023 1 gusting 5 8.3
2019-Dec-05 12:28 045 4 gusting 5 8.3
2019-Dec-05 12:23 023 5 gusting 5 8.3
2019-Dec-05 12:18 023 3 gusting 4 8.3
2019-Dec-05 12:13 045 4 gusting 4 8.3
2019-Dec-05 12:08 045 2 gusting 5 8.3
2019-Dec-05 12:03 090 1 gusting 2 8.3
2019-Dec-05 11:58 045 1 gusting 2 8.9
2019-Dec-05 11:53 045 2 gusting 3 8.9
2019-Dec-05 11:48 045 3 gusting 3 8.3
2019-Dec-05 11:43 090 1 gusting 2 8.3
2019-Dec-05 11:38 113 2 gusting 2 8.3
2019-Dec-05 11:33 045 2 gusting 6 8.3
2019-Dec-05 11:28 090 5 gusting 5 8.3
2019-Dec-05 11:23 068 1 gusting 1 8.3
2019-Dec-05 11:18 090 1 gusting 5 8.3
2019-Dec-05 11:13 045 0 gusting 1 8.3
2019-Dec-05 11:08 068 1 gusting 1 8.3
2019-Dec-05 11:03 023 1 gusting 1 8.3
2019-Dec-05 10:58 068 0 gusting 2 8.3
2019-Dec-05 10:53 023 2 gusting 2 8.3
2019-Dec-05 10:48 045 1 gusting 3 8.3
2019-Dec-05 10:43 068 3 gusting 3 8.3
2019-Dec-05 10:38 8.3
2019-Dec-05 10:33 068 8.3
2019-Dec-05 10:28 7.8
2019-Dec-05 10:23 045 7.8
2019-Dec-05 10:18 113 7.2
2019-Dec-05 10:13 158 6.7
2019-Dec-05 10:08 158 6.7
2019-Dec-05 10:03 158 6.7
2019-Dec-05 09:58 158 6.1
2019-Dec-05 09:53 158 6.1
2019-Dec-05 09:48 203 6.1
2019-Dec-05 09:43 203 5.6
2019-Dec-05 09:38 158 1 gusting 1 5.0
2019-Dec-05 09:33 203 0 gusting 3 5.0
2019-Dec-05 09:28 225 3 gusting 3 4.4
2019-Dec-05 09:23 225 3 gusting 4 4.4
2019-Dec-05 09:18 203 2 gusting 3 4.4
2019-Dec-05 09:13 248 3 gusting 6 3.9
2019-Dec-05 09:08 270 2 gusting 6 3.9
2019-Dec-05 09:03 225 4 gusting 4 3.9
2019-Dec-05 08:58 225 1 gusting 3 3.9
2019-Dec-05 08:53 248 3 gusting 5 3.9
2019-Dec-05 08:48 270 2 gusting 3 3.3
2019-Dec-05 08:43 225 3 gusting 3 3.3
2019-Dec-05 08:38 203 3.3
2019-Dec-05 08:33 225 3 gusting 4 3.3
2019-Dec-05 08:28 248 2 gusting 2 2.8
2019-Dec-05 08:23 248 1 gusting 3 2.8
2019-Dec-05 08:18 225 4 gusting 4 2.8
2019-Dec-05 08:13 293 1 gusting 4 2.8
2019-Dec-05 08:08 248 4 gusting 4 2.8
2019-Dec-05 08:03 225 5 gusting 5 2.8
2019-Dec-05 07:58 225 4 gusting 6 2.8
2019-Dec-05 07:53 270 6 gusting 6 2.8
2019-Dec-05 07:48 203 11 gusting 11 2.2
2019-Dec-05 07:43 270 2 gusting 4 1.7
2019-Dec-05 07:38 248 3 gusting 3 1.7
2019-Dec-05 07:33 248 6 gusting 6 1.7
2019-Dec-05 07:28 270 4 gusting 4 1.7
2019-Dec-05 07:23 225 4 gusting 5 1.1
2019-Dec-05 07:18 203 10 gusting 12 1.1
2019-Dec-05 07:13 225 12 gusting 12 1.7
2019-Dec-05 07:08 270 6 gusting 6 1.7
2019-Dec-05 07:03 270 6 gusting 6 1.7
2019-Dec-05 06:58 293 3 gusting 6 1.1
2019-Dec-05 06:53 270 2 gusting 5 1.1
2019-Dec-05 06:48 203 5 gusting 5 1.1
2019-Dec-05 06:43 270 4 gusting 5 1.1
2019-Dec-05 06:38 270 5 gusting 6 1.1
2019-Dec-05 06:33 203 5 gusting 6 1.1
2019-Dec-05 06:28 225 5 gusting 6 1.1
2019-Dec-05 06:23 270 6 gusting 6 1.1
2019-Dec-05 06:18 248 5 gusting 6 1.1
2019-Dec-05 06:13 270 6 gusting 6 1.1
2019-Dec-05 06:08 270 6 gusting 6 1.1
2019-Dec-05 06:03 248 5 gusting 5 1.1
2019-Dec-05 05:58 248 5 gusting 5 1.1
2019-Dec-05 05:53 248 5 gusting 5 1.7
2019-Dec-05 05:48 248 4 gusting 6 1.7
2019-Dec-05 05:43 225 4 gusting 7 1.7
2019-Dec-05 05:38 203 7 gusting 7 1.7
2019-Dec-05 05:33 248 4 gusting 10 1.7
2019-Dec-05 05:28 248 10 gusting 10 1.7
2019-Dec-05 05:23 270 4 gusting 4 1.7
2019-Dec-05 05:18 225 3 gusting 3 1.7
2019-Dec-05 05:13 270 3 gusting 3 1.7
2019-Dec-05 05:08 270 3 gusting 4 1.7
2019-Dec-05 05:03 225 3 gusting 3 1.7
2019-Dec-05 04:58 225 3 gusting 3 1.7
2019-Dec-05 04:53 248 2 gusting 5 1.7
2019-Dec-05 04:48 225 3 gusting 3 1.1
2019-Dec-05 04:43 293 2 gusting 4 1.1
2019-Dec-05 04:38 225 4 gusting 5 1.1
2019-Dec-05 04:33 248 5 gusting 6 1.1
2019-Dec-05 04:28 225 6 gusting 6 1.1
2019-Dec-05 04:23 270 3 gusting 6 1.1
2019-Dec-05 04:18 225 6 gusting 6 1.1
2019-Dec-05 04:13 225 6 gusting 6 1.7
2019-Dec-05 04:08 225 6 gusting 6 1.7
2019-Dec-05 04:03 225 3 gusting 5 1.7
2019-Dec-05 03:58 270 3 gusting 6 1.1
2019-Dec-05 03:53 248 3 gusting 5 1.1
2019-Dec-05 03:48 225 4 gusting 5 1.1
2019-Dec-05 03:43 225 5 gusting 5 1.1
2019-Dec-05 03:38 270 5 gusting 6 1.1
2019-Dec-05 03:33 203 7 gusting 7 1.1
2019-Dec-05 03:28 293 3 gusting 4 1.1
2019-Dec-05 03:23 248 3 gusting 4 1.1
2019-Dec-05 03:18 270 3 gusting 4 1.1
2019-Dec-05 03:13 225 2 gusting 4 1.1
2019-Dec-05 03:08 225 4 gusting 8 1.1
2019-Dec-05 03:03 248 4 gusting 4 1.1
2019-Dec-05 02:58 225 1 gusting 8 1.1
2019-Dec-05 02:53 248 5 gusting 5 1.1
2019-Dec-05 02:48 203 5 gusting 5 1.7
2019-Dec-05 02:43 248 4 gusting 4 1.7
2019-Dec-05 02:38 270 2 gusting 2 1.7
2019-Dec-05 02:33 270 1 gusting 2 1.7
2019-Dec-05 02:28 270 1 gusting 3 1.7
2019-Dec-05 02:23 248 3 gusting 3 1.7
2019-Dec-05 02:18 270 2 gusting 4 1.7
2019-Dec-05 02:13 225 2 gusting 3 1.1
2019-Dec-05 02:08 248 3 gusting 3 1.1
2019-Dec-05 02:03 270 2 gusting 4 1.1
2019-Dec-05 01:58 225 4 gusting 4 1.1
2019-Dec-05 01:53 225 4 gusting 4 1.1
2019-Dec-05 01:48 225 4 gusting 4 1.1
2019-Dec-05 01:43 248 2 gusting 3 1.1
2019-Dec-05 01:38 270 3 gusting 4 1.1
2019-Dec-05 01:33 270 1 gusting 3 1.1
2019-Dec-05 01:28 225 3 gusting 3 1.1
2019-Dec-05 01:23 225 2 gusting 3 1.1
2019-Dec-05 01:18 225 2 gusting 2 1.1
2019-Dec-05 01:13 225 2 gusting 3 1.1
2019-Dec-05 01:08 248 3 gusting 3 1.1
2019-Dec-05 01:03 270 4 gusting 4 0.6
2019-Dec-05 00:58 248 2 gusting 4 0.6
2019-Dec-05 00:53 203 4 gusting 5 0.6
2019-Dec-05 00:48 248 2 gusting 3 0.6
2019-Dec-05 00:43 248 1 gusting 5 0.6
2019-Dec-05 00:38 270 1 gusting 6 0.6
2019-Dec-05 00:33 225 1 gusting 3 0.6
2019-Dec-05 00:28 270 3 gusting 4 0.6
2019-Dec-05 00:23 293 4 gusting 4 1.1
2019-Dec-05 00:18 293 3 gusting 4 1.1
2019-Dec-05 00:13 248 4 gusting 6 1.1
2019-Dec-05 00:08 248 6 gusting 6 1.1
2019-Dec-05 00:03 270 3 gusting 5 1.1
2019-Dec-04 23:58 225 4 gusting 4 1.1
2019-Dec-04 23:53 270 2 gusting 4 1.1
2019-Dec-04 23:48 270 4 gusting 5 1.1
2019-Dec-04 23:43 248 5 gusting 6 1.1
2019-Dec-04 23:38 225 6 gusting 6 1.1
2019-Dec-04 23:33 248 3 gusting 10 1.1
2019-Dec-04 23:28 270 3 gusting 5 1.1
2019-Dec-04 23:23 248 4 gusting 5 1.1
2019-Dec-04 23:18 203 7 gusting 7 1.1
2019-Dec-04 23:13 158 5 gusting 5 1.1
2019-Dec-04 23:08 248 3 gusting 4 1.1
2019-Dec-04 23:03 270 1 gusting 6 1.1
2019-Dec-04 22:58 225 6 gusting 6 1.1
2019-Dec-04 22:53 270 4 gusting 4 1.1
2019-Dec-04 22:48 248 6 gusting 10 1.1
2019-Dec-04 22:43 225 8 gusting 8 1.1
2019-Dec-04 22:38 270 4 gusting 5 1.1
2019-Dec-04 22:33 270 5 gusting 6 1.1
2019-Dec-04 22:28 270 4 gusting 4 1.1
2019-Dec-04 22:23 248 3 gusting 5 1.1
2019-Dec-04 22:18 225 3 gusting 6 1.1
2019-Dec-04 22:13 248 6 gusting 6 1.1
2019-Dec-04 22:08 270 4 gusting 5 1.1
2019-Dec-04 22:03 293 2 gusting 2 1.1
2019-Dec-04 21:58 225 3 gusting 4 1.1
2019-Dec-04 21:53 225 4 gusting 4 1.1
2019-Dec-04 21:48 248 2 gusting 2 1.1
2019-Dec-04 21:43 270 1 gusting 2 1.1
2019-Dec-04 21:38 270 1 gusting 1 1.1
2019-Dec-04 21:33 270 1 gusting 4 1.1
2019-Dec-04 21:28 248 4 gusting 4 1.1
2019-Dec-04 21:23 225 4 gusting 4 1.1
2019-Dec-04 21:18 270 2 gusting 3 1.7
2019-Dec-04 21:13 248 1 gusting 1 1.7
2019-Dec-04 21:08 225 1 gusting 2 1.7
2019-Dec-04 21:03 270 1 gusting 2 1.7
2019-Dec-04 20:58 270 1.7
2019-Dec-04 20:53 270 1.7
2019-Dec-04 20:48 248 1 gusting 1 1.7
2019-Dec-04 20:43 248 1 gusting 1 1.7
2019-Dec-04 20:38 248 1 gusting 1 1.7
2019-Dec-04 20:33 270 1.7